createdAt,value
2019-03-28T00:01:30.151Z,99.90
2019-03-28T00:04:12.166Z,99.90
2019-03-28T00:06:54.252Z,99.90
2019-03-28T00:09:36.656Z,99.90
2019-03-28T00:12:18.179Z,99.90
2019-03-28T00:15:00.630Z,99.90
2019-03-28T00:17:42.477Z,99.90
2019-03-28T00:20:25.553Z,99.90
2019-03-28T00:23:12.168Z,99.90
2019-03-28T00:25:54.404Z,99.90
2019-03-28T00:28:37.049Z,99.90
2019-03-28T00:31:18.968Z,99.90
2019-03-28T00:34:00.587Z,99.90
2019-03-28T00:36:42.215Z,99.90
2019-03-28T00:39:24.663Z,99.90
2019-03-28T00:42:06.886Z,99.90
2019-03-28T00:44:48.819Z,99.90
2019-03-28T00:47:30.357Z,99.90
2019-03-28T00:50:12.182Z,99.90
2019-03-28T00:52:54.185Z,99.90
2019-03-28T00:55:36.391Z,99.90
2019-03-28T00:58:19.496Z,99.90
2019-03-28T01:01:01.318Z,99.90
2019-03-28T01:03:43.600Z,99.90
2019-03-28T01:06:25.043Z,99.90
2019-03-28T01:09:07.435Z,99.90
2019-03-28T01:11:49.160Z,99.90
2019-03-28T01:14:30.903Z,99.90
2019-03-28T01:17:12.698Z,99.90
2019-03-28T01:19:54.328Z,99.90
2019-03-28T01:22:35.883Z,99.90
2019-03-28T01:25:18.221Z,99.90
2019-03-28T01:28:00.566Z,99.90
2019-03-28T01:30:42.428Z,99.90
2019-03-28T01:33:23.860Z,99.90
2019-03-28T01:36:05.375Z,99.90
2019-03-28T01:38:47.546Z,99.90
2019-03-28T01:41:31.468Z,99.90
2019-03-28T01:44:13.371Z,99.90
2019-03-28T01:46:55.485Z,99.90
2019-03-28T01:49:37.404Z,99.90
2019-03-28T01:52:19.311Z,99.90
2019-03-28T01:55:01.057Z,99.90
2019-03-28T01:57:43.476Z,99.90
2019-03-28T02:00:25.650Z,99.90
2019-03-28T02:03:07.847Z,99.90
2019-03-28T02:05:49.610Z,99.90
2019-03-28T02:08:31.744Z,99.90
2019-03-28T02:11:13.492Z,99.90
2019-03-28T02:13:55.435Z,99.90
2019-03-28T02:16:37.772Z,99.90
2019-03-28T02:19:19.859Z,99.90
2019-03-28T02:22:02.165Z,99.90
2019-03-28T02:24:44.066Z,99.90
2019-03-28T02:27:26.072Z,99.90
2019-03-28T02:30:08.361Z,99.90
2019-03-28T02:32:51.102Z,99.90
2019-03-28T02:35:31.728Z,99.90
2019-03-28T02:38:20.812Z,99.90
2019-03-28T02:41:29.337Z,99.90
2019-03-28T02:44:37.859Z,99.90
2019-03-28T02:47:47.559Z,99.90
2019-03-28T02:50:31.031Z,99.90
2019-03-28T02:53:13.673Z,99.90
2019-03-28T02:55:55.595Z,99.90
2019-03-28T02:58:37.903Z,99.90
2019-03-28T03:01:19.679Z,99.90
2019-03-28T03:04:01.577Z,99.90
2019-03-28T03:06:43.376Z,99.90
2019-03-28T03:09:25.783Z,99.90
2019-03-28T03:12:07.635Z,99.90
2019-03-28T03:14:49.568Z,99.90
2019-03-28T03:17:31.613Z,99.90
2019-03-28T03:20:13.951Z,99.90
2019-03-28T03:22:55.703Z,99.90
2019-03-28T03:25:25.201Z,99.90
2019-03-28T03:28:14.316Z,99.90
2019-03-28T03:31:04.759Z,99.90
2019-03-28T03:34:13.345Z,99.90
2019-03-28T03:37:04.192Z,99.90
2019-03-28T03:40:13.778Z,99.90
2019-03-28T03:43:23.172Z,99.90
2019-03-28T03:46:32.458Z,99.90
2019-03-28T03:49:22.870Z,99.90
2019-03-28T03:52:13.381Z,99.90
2019-03-28T03:55:24.600Z,99.90
2019-03-28T03:58:17.065Z,99.90
2019-03-28T04:01:25.072Z,99.90
2019-03-28T04:04:15.549Z,99.90
2019-03-28T04:07:23.860Z,99.90
2019-03-28T04:10:32.343Z,99.90
2019-03-28T04:13:40.705Z,99.90
2019-03-28T04:16:31.375Z,99.90
2019-03-28T04:19:21.793Z,99.90
2019-03-28T04:22:30.136Z,99.90
2019-03-28T04:25:20.605Z,99.90
2019-03-28T04:28:32.037Z,99.90
2019-03-28T04:31:38.848Z,99.90
2019-03-28T04:34:27.995Z,99.90
2019-03-28T04:36:57.535Z,99.90
2019-03-28T04:39:27.174Z,99.90
2019-03-28T04:41:56.915Z,99.90
2019-03-28T04:44:26.349Z,99.90
2019-03-28T04:46:55.973Z,99.90
2019-03-28T04:49:25.445Z,99.90
2019-03-28T04:51:54.996Z,99.90
2019-03-28T04:54:24.550Z,99.90
2019-03-28T04:56:54.039Z,99.90
2019-03-28T04:59:23.511Z,99.90
2019-03-28T05:02:02.594Z,99.90
2019-03-28T05:04:24.199Z,99.90
2019-03-28T05:06:53.728Z,99.90
2019-03-28T05:09:23.255Z,99.90
2019-03-28T05:11:53.049Z,99.90
2019-03-28T05:14:22.574Z,99.90
2019-03-28T05:16:52.072Z,99.90
2019-03-28T05:19:21.538Z,99.90
2019-03-28T05:21:51.046Z,99.90
2019-03-28T05:24:21.219Z,99.90
2019-03-28T05:26:51.029Z,99.90
2019-03-28T05:29:21.309Z,99.90
2019-03-28T05:31:52.683Z,99.90
2019-03-28T05:34:22.269Z,99.90
2019-03-28T05:36:52.271Z,99.90
2019-03-28T05:39:22.183Z,99.90
2019-03-28T05:41:51.630Z,99.90
2019-03-28T05:44:21.371Z,99.90
2019-03-28T05:46:51.061Z,99.90
2019-03-28T05:49:21.346Z,99.90
2019-03-28T05:51:51.037Z,99.90
2019-03-28T05:54:21.381Z,99.90
2019-03-28T05:56:51.189Z,99.90
2019-03-28T05:59:21.464Z,99.90
2019-03-28T06:01:52.156Z,99.90
2019-03-28T06:04:21.631Z,99.90
2019-03-28T06:06:51.070Z,99.90
2019-03-28T06:09:21.390Z,99.90
2019-03-28T06:11:52.961Z,99.90
2019-03-28T06:14:22.616Z,99.90
2019-03-28T06:16:53.235Z,99.90
2019-03-28T06:19:22.698Z,99.90
2019-03-28T06:21:52.123Z,99.90
2019-03-28T06:24:21.581Z,99.90
2019-03-28T06:26:51.087Z,99.90
2019-03-28T06:29:24.037Z,99.90
2019-03-28T06:31:55.423Z,99.90
2019-03-28T06:34:23.715Z,99.90
2019-03-28T06:36:53.211Z,99.90
2019-03-28T06:39:22.719Z,99.90
2019-03-28T06:41:52.302Z,99.90
2019-03-28T06:44:21.831Z,99.90
2019-03-28T06:46:51.367Z,99.90
2019-03-28T06:49:21.511Z,99.90
2019-03-28T06:51:51.137Z,99.90
2019-03-28T06:54:24.189Z,99.90
2019-03-28T06:56:52.490Z,99.90
2019-03-28T06:59:22.307Z,99.90
2019-03-28T07:01:52.110Z,99.90
2019-03-28T07:04:21.773Z,99.90
2019-03-28T07:06:51.450Z,99.90
2019-03-28T07:09:21.494Z,99.90
2019-03-28T07:11:51.222Z,99.90
2019-03-28T07:14:21.507Z,99.90
2019-03-28T07:16:51.158Z,99.90
2019-03-28T07:19:21.451Z,99.90
2019-03-28T07:21:51.164Z,99.90
2019-03-28T07:24:21.423Z,99.90
2019-03-28T07:26:51.550Z,99.90
2019-03-28T07:29:21.494Z,99.90
2019-03-28T07:31:51.196Z,99.90
2019-03-28T07:34:21.432Z,99.90
2019-03-28T07:36:51.264Z,99.90
2019-03-28T07:39:21.430Z,99.90
2019-03-28T07:41:51.139Z,99.90
2019-03-28T07:44:21.470Z,99.90
2019-03-28T07:46:51.258Z,99.90
2019-03-28T07:49:21.477Z,99.90
2019-03-28T07:51:51.253Z,99.90
2019-03-28T07:54:21.550Z,99.90
2019-03-28T07:56:51.336Z,99.90
2019-03-28T07:59:21.501Z,99.90
2019-03-28T08:01:51.270Z,99.90
2019-03-28T08:04:21.538Z,99.90
2019-03-28T08:06:51.863Z,99.90
2019-03-28T08:09:21.608Z,99.90
2019-03-28T08:11:51.340Z,99.90
2019-03-28T08:14:21.575Z,99.90
2019-03-28T08:16:51.301Z,99.90
2019-03-28T08:19:21.546Z,99.90
2019-03-28T08:21:51.266Z,99.90
2019-03-28T08:24:21.558Z,99.90
2019-03-28T08:26:51.288Z,99.90
2019-03-28T08:29:21.660Z,99.90
2019-03-28T08:31:52.964Z,99.90
2019-03-28T08:34:22.545Z,99.90
2019-03-28T08:36:52.526Z,99.90
2019-03-28T08:39:21.981Z,99.90
2019-03-28T08:41:51.518Z,99.90
2019-03-28T08:44:22.829Z,99.90
2019-03-28T08:46:52.592Z,99.90
2019-03-28T08:49:23.389Z,99.90
2019-03-28T08:51:52.974Z,99.90
2019-03-28T08:54:22.616Z,99.90
2019-03-28T08:56:52.422Z,99.90
2019-03-28T08:59:21.964Z,99.90
2019-03-28T09:01:51.603Z,99.90
2019-03-28T09:04:21.550Z,99.90
2019-03-28T09:06:51.416Z,99.90
2019-03-28T09:09:21.662Z,99.90
2019-03-28T09:11:51.421Z,99.90
2019-03-28T09:14:21.709Z,99.90
2019-03-28T09:16:51.506Z,99.90
2019-03-28T09:19:21.783Z,99.90
2019-03-28T09:21:51.477Z,99.90
2019-03-28T09:24:21.551Z,99.90
2019-03-28T09:26:51.343Z,99.90
2019-03-28T09:29:21.657Z,99.90
2019-03-28T09:31:51.427Z,99.90
2019-03-28T09:34:21.693Z,99.90
2019-03-28T09:36:51.499Z,98.70
2019-03-28T09:39:24.711Z,99.70
2019-03-28T09:41:52.912Z,99.00
2019-03-28T09:44:22.634Z,98.10
2019-03-28T09:46:52.418Z,99.90
2019-03-28T09:49:21.872Z,99.90
2019-03-28T09:51:51.481Z,99.90
2019-03-28T09:54:21.746Z,98.60
2019-03-28T09:56:51.388Z,97.50
2019-03-28T10:02:29.612Z,97.80
2019-03-28T10:04:59.045Z,99.90
2019-03-28T10:07:28.597Z,99.90
2019-03-28T10:09:58.460Z,98.90
2019-03-28T10:12:28.088Z,99.90
2019-03-28T10:14:57.535Z,98.70
2019-03-28T10:17:27.401Z,97.40
2019-03-28T10:19:57.007Z,95.80
2019-03-28T10:22:26.734Z,91.10
2019-03-28T10:24:56.100Z,93.10
2019-03-28T10:27:25.718Z,96.40
2019-03-28T10:29:55.192Z,92.80
2019-03-28T10:32:24.794Z,91.30
2019-03-28T10:35:34.517Z,88.00
2019-03-28T10:38:43.197Z,90.80
2019-03-28T10:41:51.510Z,89.10
2019-03-28T10:44:41.282Z,84.80
2019-03-28T10:47:32.061Z,79.30
2019-03-28T10:50:22.539Z,83.50
2019-03-28T10:53:06.653Z,84.90
2019-03-28T10:55:48.619Z,78.80
2019-03-28T10:58:30.340Z,80.10
2019-03-28T11:01:12.196Z,80.80
2019-03-28T11:03:53.978Z,80.20
2019-03-28T11:06:36.364Z,77.70
2019-03-28T11:09:18.374Z,76.90
2019-03-28T11:12:00.299Z,75.00
2019-03-28T11:14:42.355Z,74.70
2019-03-28T11:17:24.708Z,68.90
2019-03-28T11:20:06.473Z,70.40
2019-03-28T11:22:48.504Z,64.70
2019-03-28T11:25:30.106Z,68.90
2019-03-28T11:28:12.321Z,68.30
2019-03-28T11:30:54.675Z,66.60
2019-03-28T11:33:36.348Z,64.70
2019-03-28T11:36:18.894Z,66.50
2019-03-28T11:39:02.819Z,62.90
2019-03-28T11:41:43.858Z,62.60
2019-03-28T11:44:26.201Z,62.40
2019-03-28T11:47:08.083Z,61.50
2019-03-28T11:49:50.382Z,59.30
2019-03-28T11:52:30.244Z,59.40
2019-03-28T11:55:19.152Z,59.70
2019-03-28T11:58:08.125Z,61.10
2019-03-28T12:00:58.677Z,59.20
2019-03-28T12:03:49.239Z,59.60
2019-03-28T12:06:57.560Z,57.70
2019-03-28T12:09:48.284Z,58.40
2019-03-28T12:12:38.777Z,57.70
2019-03-28T12:15:29.270Z,57.90
2019-03-28T12:18:19.792Z,57.50
2019-03-28T12:21:08.798Z,57.10
2019-03-28T12:23:59.377Z,58.00
2019-03-28T12:27:07.834Z,59.30
2019-03-28T12:30:16.577Z,59.30
2019-03-28T12:33:06.682Z,57.10
2019-03-28T12:35:55.718Z,57.90
2019-03-28T12:38:46.318Z,56.80
2019-03-28T12:41:36.874Z,58.00
2019-03-28T12:44:27.360Z,59.10
2019-03-28T12:47:42.210Z,56.00
2019-03-28T12:50:58.231Z,54.80
2019-03-28T12:53:49.492Z,54.80
2019-03-28T12:56:31.912Z,54.30
2019-03-28T13:01:56.670Z,53.90
2019-03-28T13:04:38.222Z,52.10
2019-03-28T13:07:20.432Z,52.00
2019-03-28T13:10:02.377Z,53.40
2019-03-28T13:12:44.269Z,51.50
2019-03-28T13:15:26.481Z,49.60
2019-03-28T13:18:08.353Z,49.60
2019-03-28T13:20:50.578Z,49.40
2019-03-28T13:23:32.975Z,50.50
2019-03-28T13:26:14.862Z,49.50
2019-03-28T13:28:57.252Z,48.10
2019-03-28T13:31:39.882Z,48.10
2019-03-28T13:34:21.778Z,50.20
2019-03-28T13:37:03.384Z,50.80
2019-03-28T13:39:45.892Z,50.50
2019-03-28T13:42:27.772Z,50.70
2019-03-28T13:45:09.829Z,51.40
2019-03-28T13:47:54.362Z,50.40
2019-03-28T13:50:36.946Z,49.20
2019-03-28T13:53:18.946Z,50.40
2019-03-28T13:56:00.916Z,48.40
2019-03-28T13:58:40.827Z,48.40
2019-03-28T14:01:29.873Z,48.20
2019-03-28T14:04:20.351Z,47.20
2019-03-28T14:07:28.674Z,47.70
2019-03-28T14:10:36.966Z,48.20
2019-03-28T14:13:45.642Z,49.30
2019-03-28T14:16:36.340Z,49.80
2019-03-28T14:19:27.247Z,50.00
2019-03-28T14:22:18.285Z,49.40
2019-03-28T14:25:27.705Z,49.70
2019-03-28T14:28:18.339Z,50.30
2019-03-28T14:33:31.118Z,49.70
2019-03-28T14:38:55.296Z,50.70
2019-03-28T14:41:37.129Z,51.90
2019-03-28T14:44:17.309Z,52.10
2019-03-28T14:47:06.387Z,53.40
2019-03-28T14:49:56.898Z,53.30
2019-03-28T14:52:47.691Z,54.40
2019-03-28T14:55:36.762Z,55.40
2019-03-28T14:58:45.347Z,54.70
2019-03-28T15:01:35.805Z,53.50
2019-03-28T15:04:44.469Z,54.20
2019-03-28T15:07:54.325Z,53.60
2019-03-28T15:10:43.607Z,53.70
2019-03-28T15:13:51.941Z,51.40
2019-03-28T15:16:42.093Z,49.20
2019-03-28T15:19:32.576Z,49.40
2019-03-28T15:22:41.652Z,50.40
2019-03-28T15:25:32.628Z,51.80
2019-03-28T15:28:23.184Z,52.80
2019-03-28T15:31:12.475Z,54.50
2019-03-28T15:37:36.603Z,54.30
2019-03-28T15:40:27.219Z,55.60
2019-03-28T15:43:16.550Z,56.90
2019-03-28T15:46:07.075Z,57.50
2019-03-28T15:49:15.602Z,57.40
2019-03-28T15:51:58.646Z,58.60
2019-03-28T15:54:41.572Z,58.50
2019-03-28T15:57:24.203Z,59.20
2019-03-28T16:00:06.122Z,60.10
2019-03-28T16:02:47.866Z,61.40
2019-03-28T16:05:30.100Z,61.50
2019-03-28T16:08:12.030Z,62.40
2019-03-28T16:10:54.535Z,63.50
2019-03-28T16:13:37.680Z,63.70
2019-03-28T16:16:20.159Z,63.00
2019-03-28T16:19:01.607Z,62.70
2019-03-28T16:21:51.026Z,63.30
2019-03-28T16:24:59.659Z,62.30
2019-03-28T16:28:08.204Z,63.30
2019-03-28T16:30:58.772Z,64.70
2019-03-28T16:34:07.661Z,65.50
2019-03-28T16:37:17.139Z,66.30
2019-03-28T16:40:25.640Z,66.50
2019-03-28T16:43:14.706Z,67.60
2019-03-28T16:46:07.624Z,69.60
2019-03-28T16:49:15.148Z,70.50
2019-03-28T16:51:58.231Z,71.80
2019-03-28T16:54:40.685Z,73.60
2019-03-28T16:57:22.510Z,75.60
2019-03-28T17:00:04.248Z,78.20
2019-03-28T17:02:44.227Z,82.00
2019-03-28T17:05:47.040Z,83.20
2019-03-28T17:12:17.416Z,87.30
2019-03-28T17:15:25.942Z,90.10
2019-03-28T17:18:35.698Z,91.40
2019-03-28T17:21:26.302Z,92.20
2019-03-28T17:24:16.750Z,93.10
2019-03-28T17:27:07.319Z,94.90
2019-03-28T17:29:57.873Z,96.50
2019-03-28T17:33:06.201Z,99.00
2019-03-28T17:35:56.966Z,99.90
2019-03-28T17:39:05.661Z,99.90
2019-03-28T17:42:14.022Z,99.90
2019-03-28T17:45:22.354Z,99.90
2019-03-28T17:48:30.993Z,99.90
2019-03-28T17:51:35.706Z,99.90
2019-03-28T17:54:17.317Z,99.90
2019-03-28T17:56:58.827Z,99.90
2019-03-28T17:59:40.788Z,99.90
2019-03-28T18:02:23.293Z,99.90
2019-03-28T18:05:09.670Z,99.90
2019-03-28T18:07:48.225Z,99.90
2019-03-28T18:10:29.989Z,99.90
2019-03-28T18:13:12.117Z,99.90
2019-03-28T18:15:54.088Z,99.90
2019-03-28T18:18:35.877Z,99.90
2019-03-28T18:21:18.411Z,99.90
2019-03-28T18:24:00.120Z,99.90
2019-03-28T18:26:41.877Z,99.90
2019-03-28T18:29:11.436Z,99.90
2019-03-28T18:32:00.547Z,99.90
2019-03-28T18:34:59.458Z,99.90
2019-03-28T18:37:59.398Z,99.90
2019-03-28T18:40:48.197Z,99.90
2019-03-28T18:43:38.827Z,99.90
2019-03-28T18:46:29.373Z,99.90
2019-03-28T18:49:37.803Z,99.90
2019-03-28T18:52:38.826Z,99.90
2019-03-28T18:55:20.951Z,99.90
2019-03-28T18:58:03.139Z,99.90
2019-03-28T19:00:47.998Z,99.90
2019-03-28T19:03:29.125Z,99.90
2019-03-28T19:06:10.876Z,99.90
2019-03-28T19:08:53.724Z,99.90
2019-03-28T19:11:36.174Z,99.90
2019-03-28T19:14:18.197Z,99.90
2019-03-28T19:17:00.215Z,99.90
2019-03-28T19:19:41.718Z,99.90
2019-03-28T19:22:23.894Z,99.90
2019-03-28T19:25:05.967Z,99.90
2019-03-28T19:27:48.124Z,99.90
2019-03-28T19:30:29.581Z,99.90
2019-03-28T19:33:11.368Z,99.90
2019-03-28T19:35:53.035Z,99.90
2019-03-28T19:38:35.011Z,99.90
2019-03-28T19:41:16.674Z,99.90
2019-03-28T19:43:58.463Z,99.90
2019-03-28T19:46:39.903Z,99.90
2019-03-28T19:49:23.365Z,99.90
2019-03-28T19:52:05.351Z,99.90
2019-03-28T19:54:46.894Z,99.90
2019-03-28T19:57:28.891Z,99.90
2019-03-28T20:00:10.938Z,99.90
2019-03-28T20:02:53.421Z,99.90
2019-03-28T20:05:46.915Z,99.90
2019-03-28T20:08:19.162Z,99.90
2019-03-28T20:11:01.323Z,99.90
2019-03-28T20:13:43.110Z,99.90
2019-03-28T20:16:25.879Z,99.90
2019-03-28T20:19:05.851Z,99.90
2019-03-28T20:21:54.994Z,99.90
2019-03-28T20:25:24.130Z,99.90
2019-03-28T20:28:14.808Z,99.90
2019-03-28T20:31:24.501Z,99.90
2019-03-28T20:34:15.007Z,99.90
2019-03-28T20:37:05.433Z,99.90
2019-03-28T20:39:56.179Z,99.90
2019-03-28T20:42:46.640Z,99.90
2019-03-28T20:45:55.200Z,99.90
2019-03-28T20:48:45.638Z,99.90
2019-03-28T20:51:47.499Z,99.90
2019-03-28T20:54:29.227Z,99.90
2019-03-28T20:57:11.480Z,99.90
2019-03-28T20:59:53.603Z,99.90
2019-03-28T21:02:35.559Z,99.90
2019-03-28T21:05:17.240Z,99.90
2019-03-28T21:07:59.289Z,99.90
2019-03-28T21:10:41.328Z,99.90
2019-03-28T21:13:23.278Z,99.90
2019-03-28T21:16:05.126Z,99.90
2019-03-28T21:18:47.405Z,99.90
2019-03-28T21:21:27.420Z,99.90
2019-03-28T21:24:16.389Z,99.90
2019-03-28T21:27:07.238Z,99.90
2019-03-28T21:30:18.545Z,99.90
2019-03-28T21:33:27.156Z,99.90
2019-03-28T21:36:35.503Z,99.90
2019-03-28T21:39:26.260Z,99.90
2019-03-28T21:42:16.675Z,99.90
2019-03-28T21:45:07.130Z,99.90
2019-03-28T21:47:57.564Z,99.90
2019-03-28T21:50:48.246Z,99.90
2019-03-28T21:53:49.745Z,99.90
2019-03-28T21:56:31.907Z,99.90
2019-03-28T21:59:13.817Z,99.90
2019-03-28T22:01:56.016Z,99.90
2019-03-28T22:04:38.111Z,99.90
2019-03-28T22:07:19.760Z,99.90
2019-03-28T22:10:01.457Z,99.90
2019-03-28T22:12:43.315Z,99.90
2019-03-28T22:15:25.497Z,99.90
2019-03-28T22:18:07.790Z,99.90
2019-03-28T22:20:51.567Z,99.90
2019-03-28T22:23:32.879Z,99.90
2019-03-28T22:26:14.255Z,99.90
2019-03-28T22:28:56.416Z,99.90
2019-03-28T22:31:38.863Z,99.90
2019-03-28T22:34:20.539Z,99.90
2019-03-28T22:37:03.670Z,99.90
2019-03-28T22:39:45.796Z,99.90
2019-03-28T22:42:27.532Z,99.90
2019-03-28T22:45:09.449Z,99.90
2019-03-28T22:47:51.212Z,99.90
2019-03-28T22:50:33.134Z,99.90
2019-03-28T22:53:19.250Z,99.90
2019-03-28T22:55:59.308Z,99.90
2019-03-28T22:58:28.918Z,99.90
2019-03-28T23:01:19.472Z,99.90
2019-03-28T23:04:10.266Z,99.90
2019-03-28T23:07:18.600Z,99.90
2019-03-28T23:10:26.908Z,99.90
2019-03-28T23:13:35.371Z,99.90
2019-03-28T23:16:44.045Z,99.90
2019-03-28T23:19:34.594Z,99.90
2019-03-28T23:22:23.552Z,99.90
2019-03-28T23:25:31.871Z,99.90
2019-03-28T23:28:40.359Z,99.90
2019-03-28T23:31:50.757Z,99.90
2019-03-28T23:34:58.681Z,99.90
2019-03-28T23:37:47.623Z,99.90
2019-03-28T23:40:59.151Z,99.90
2019-03-28T23:44:07.509Z,99.90
2019-03-28T23:46:56.666Z,99.90
2019-03-28T23:49:47.678Z,99.90
2019-03-28T23:52:31.096Z,99.90
2019-03-28T23:55:13.514Z,99.90
2019-03-28T23:57:56.252Z,99.90
